createdAt,value
2022-09-04T00:00:10.613Z,19.90
2022-09-04T00:03:10.815Z,20.00
2022-09-04T00:05:45.659Z,19.90
2022-09-04T00:08:33.478Z,19.90
2022-09-04T00:11:33.162Z,19.90
2022-09-04T00:14:03.549Z,19.90
2022-09-04T00:16:46.327Z,19.90
2022-09-04T00:19:34.773Z,19.90
2022-09-04T00:22:20.300Z,19.80
2022-09-04T00:25:02.441Z,19.80
2022-09-04T00:27:43.391Z,19.80
2022-09-04T00:30:22.543Z,19.80
2022-09-04T00:33:15.995Z,19.80
2022-09-04T00:35:49.890Z,19.80
2022-09-04T00:38:40.161Z,19.80
2022-09-04T00:41:16.574Z,19.80
2022-09-04T00:44:19.254Z,19.70
2022-09-04T00:47:09.322Z,19.70
2022-09-04T00:50:29.047Z,19.70
2022-09-04T00:53:12.349Z,19.70
2022-09-04T00:55:39.547Z,19.70
2022-09-04T00:58:27.878Z,19.70
2022-09-04T01:00:58.243Z,19.70
2022-09-04T01:03:59.278Z,19.60
2022-09-04T01:06:48.379Z,19.60
2022-09-04T01:09:33.684Z,19.60
2022-09-04T01:12:12.534Z,19.60
2022-09-04T01:14:42.455Z,19.50
2022-09-04T01:17:25.843Z,19.50
2022-09-04T01:20:20.237Z,19.50
2022-09-04T01:23:14.162Z,19.50
2022-09-04T01:26:27.984Z,19.50
2022-09-04T01:29:15.824Z,19.40
2022-09-04T01:32:01.859Z,19.40
2022-09-04T01:35:04.568Z,19.40
2022-09-04T01:37:49.564Z,19.40
2022-09-04T01:40:48.316Z,19.40
2022-09-04T01:43:18.645Z,19.40
2022-09-04T01:46:08.022Z,19.40
2022-09-04T01:48:41.315Z,19.40
2022-09-04T01:51:20.316Z,19.30
2022-09-04T01:54:10.464Z,19.30
2022-09-04T01:57:14.742Z,19.30
2022-09-04T02:00:02.215Z,19.30
2022-09-04T02:02:44.145Z,19.20
2022-09-04T02:05:13.155Z,19.20
2022-09-04T02:08:02.373Z,19.20
2022-09-04T02:10:39.024Z,19.20
2022-09-04T02:13:26.207Z,19.20
2022-09-04T02:16:06.626Z,19.20
2022-09-04T02:18:49.248Z,19.20
2022-09-04T02:21:44.800Z,19.20
2022-09-04T02:24:37.553Z,19.20
2022-09-04T02:27:14.830Z,19.20
2022-09-04T02:30:08.130Z,19.10
2022-09-04T02:32:47.923Z,19.10
2022-09-04T02:35:35.237Z,19.10
2022-09-04T02:38:12.927Z,19.10
2022-09-04T02:41:01.665Z,19.10
2022-09-04T02:44:04.367Z,19.10
2022-09-04T02:46:53.113Z,19.00
2022-09-04T02:49:29.846Z,19.00
2022-09-04T02:52:09.235Z,18.90
2022-09-04T02:55:17.897Z,19.00
2022-09-04T02:57:54.956Z,18.90
2022-09-04T03:00:54.318Z,18.90
2022-09-04T03:03:31.298Z,18.90
2022-09-04T03:06:15.756Z,18.90
2022-09-04T03:08:57.021Z,18.90
2022-09-04T03:11:34.896Z,18.80
2022-09-04T03:14:10.310Z,18.80
2022-09-04T03:16:47.800Z,18.80
2022-09-04T03:19:40.282Z,18.80
2022-09-04T03:22:12.930Z,18.80
2022-09-04T03:25:03.970Z,18.70
2022-09-04T03:27:33.209Z,18.70
2022-09-04T03:30:07.900Z,18.70
2022-09-04T03:33:07.462Z,18.70
2022-09-04T03:35:53.557Z,18.70
2022-09-04T03:39:02.371Z,18.70
2022-09-04T03:41:34.720Z,18.70
2022-09-04T03:44:36.635Z,18.60
2022-09-04T03:47:23.757Z,18.60
2022-09-04T03:50:18.393Z,18.70
2022-09-04T03:52:55.827Z,18.60
2022-09-04T03:55:42.452Z,18.60
2022-09-04T03:58:21.909Z,18.60
2022-09-04T04:01:05.837Z,18.60
2022-09-04T04:03:59.839Z,18.50
2022-09-04T04:06:58.263Z,18.50
2022-09-04T04:09:48.214Z,18.50
2022-09-04T04:12:45.254Z,18.50
2022-09-04T04:15:45.197Z,18.40
2022-09-04T04:18:35.782Z,18.40
2022-09-04T04:21:21.138Z,18.40
2022-09-04T04:24:18.074Z,18.30
2022-09-04T04:26:54.921Z,18.30
2022-09-04T04:29:45.088Z,18.30
2022-09-04T04:32:24.253Z,18.30
2022-09-04T04:35:04.182Z,18.40
2022-09-04T04:37:51.824Z,18.40
2022-09-04T04:40:30.172Z,18.40
2022-09-04T04:43:28.166Z,18.40
2022-09-04T04:46:07.448Z,18.40
2022-09-04T04:49:04.316Z,18.40
2022-09-04T04:51:50.984Z,18.40
2022-09-04T04:54:39.911Z,18.40
2022-09-04T04:57:38.442Z,18.40
2022-09-04T05:00:25.311Z,18.30
2022-09-04T05:03:24.823Z,18.30
2022-09-04T05:05:55.893Z,18.30
2022-09-04T05:09:01.117Z,18.30
2022-09-04T05:11:43.233Z,18.30
2022-09-04T05:14:47.600Z,18.30
2022-09-04T05:17:57.631Z,18.30
2022-09-04T05:20:28.038Z,18.30
2022-09-04T05:23:15.074Z,18.20
2022-09-04T05:25:59.670Z,18.30
2022-09-04T05:29:02.391Z,18.20
2022-09-04T05:31:57.729Z,18.20
2022-09-04T05:34:40.354Z,18.30
2022-09-04T05:37:17.078Z,18.30
2022-09-04T05:39:56.653Z,18.30
2022-09-04T05:42:48.994Z,18.30
2022-09-04T05:45:50.114Z,18.30
2022-09-04T05:48:26.640Z,18.30
2022-09-04T05:51:34.865Z,18.30
2022-09-04T05:54:21.923Z,18.30
2022-09-04T05:57:21.041Z,18.40
2022-09-04T06:00:01.095Z,18.40
2022-09-04T06:02:56.727Z,18.40
2022-09-04T06:05:28.569Z,18.40
2022-09-04T06:08:28.347Z,18.40
2022-09-04T06:11:02.295Z,18.40
2022-09-04T06:13:38.520Z,18.50
2022-09-04T06:16:32.859Z,18.50
2022-09-04T06:19:06.050Z,18.60
2022-09-04T06:21:51.866Z,18.60
2022-09-04T06:24:32.078Z,18.60
2022-09-04T06:27:27.121Z,18.60
2022-09-04T06:30:05.290Z,18.70
2022-09-04T06:32:53.480Z,18.70
2022-09-04T06:35:52.790Z,18.80
2022-09-04T06:38:29.256Z,18.80
2022-09-04T06:41:02.621Z,18.80
2022-09-04T06:43:40.565Z,18.80
2022-09-04T06:46:20.729Z,18.90
2022-09-04T06:49:19.050Z,18.90
2022-09-04T06:51:46.253Z,18.90
2022-09-04T06:55:07.753Z,19.00
2022-09-04T06:57:35.336Z,19.10
2022-09-04T07:00:14.476Z,19.10
2022-09-04T07:03:08.189Z,19.20
2022-09-04T07:05:43.454Z,19.20
2022-09-04T07:08:16.943Z,19.20
2022-09-04T07:10:58.635Z,19.30
2022-09-04T07:14:00.717Z,19.30
2022-09-04T07:16:51.311Z,19.40
2022-09-04T07:19:29.381Z,19.40
2022-09-04T07:22:23.959Z,19.40
2022-09-04T07:25:09.793Z,19.50
2022-09-04T07:28:01.780Z,19.50
2022-09-04T07:30:38.269Z,19.60
2022-09-04T07:33:36.607Z,19.60
2022-09-04T07:36:22.952Z,19.60
2022-09-04T07:39:10.859Z,19.70
2022-09-04T07:41:48.903Z,19.70
2022-09-04T07:44:43.765Z,19.80
2022-09-04T07:47:42.307Z,19.80
2022-09-04T07:50:15.893Z,19.90
2022-09-04T07:53:11.144Z,20.00
2022-09-04T07:55:46.788Z,20.00
2022-09-04T07:58:44.843Z,20.00
2022-09-04T08:01:17.883Z,20.10
2022-09-04T08:04:22.740Z,20.20
2022-09-04T08:07:00.249Z,20.20
2022-09-04T08:09:36.747Z,20.30
2022-09-04T08:12:32.015Z,20.40
2022-09-04T08:15:22.152Z,20.40
2022-09-04T08:18:08.135Z,20.50
2022-09-04T08:21:07.564Z,20.50
2022-09-04T08:23:46.962Z,20.60
2022-09-04T08:26:34.667Z,20.60
2022-09-04T08:29:37.296Z,20.70
2022-09-04T08:32:46.251Z,20.70
2022-09-04T08:35:26.947Z,20.80
2022-09-04T08:38:14.494Z,20.90
2022-09-04T08:41:09.658Z,20.90
2022-09-04T08:44:22.566Z,21.00
2022-09-04T08:47:19.311Z,21.00
2022-09-04T08:49:59.926Z,21.10
2022-09-04T08:52:36.466Z,21.10
2022-09-04T08:55:19.062Z,21.20
2022-09-04T08:58:24.543Z,21.30
2022-09-04T09:01:10.569Z,21.30
2022-09-04T09:03:52.611Z,21.40
2022-09-04T09:06:51.205Z,21.50
2022-09-04T09:09:45.679Z,21.50
2022-09-04T09:12:25.143Z,21.60
2022-09-04T09:15:32.850Z,21.70
2022-09-04T09:18:48.909Z,21.70
2022-09-04T09:21:34.314Z,21.80
2022-09-04T09:24:01.527Z,21.80
2022-09-04T09:26:33.455Z,21.90
2022-09-04T09:29:20.095Z,21.90
2022-09-04T09:32:07.137Z,22.00
2022-09-04T09:35:09.133Z,22.10
2022-09-04T09:38:04.515Z,22.10
2022-09-04T09:41:06.388Z,22.20
2022-09-04T09:44:03.645Z,22.30
2022-09-04T09:46:54.932Z,22.30
2022-09-04T09:49:22.227Z,22.40
2022-09-04T09:52:34.679Z,22.40
2022-09-04T09:55:28.253Z,22.50
2022-09-04T09:58:16.042Z,22.60
2022-09-04T10:01:20.401Z,22.60
2022-09-04T10:03:55.084Z,22.70
2022-09-04T10:06:49.472Z,22.80
2022-09-04T10:09:41.653Z,22.80
2022-09-04T10:12:36.814Z,22.90
2022-09-04T10:15:34.998Z,23.00
2022-09-04T10:18:24.274Z,23.10
2022-09-04T10:21:29.469Z,23.20
2022-09-04T10:24:34.103Z,23.20
2022-09-04T10:27:28.926Z,23.30
2022-09-04T10:30:12.068Z,23.40
2022-09-04T10:33:11.812Z,23.40
2022-09-04T10:36:00.352Z,23.50
2022-09-04T10:39:03.488Z,23.50
2022-09-04T10:42:01.208Z,23.60
2022-09-04T10:45:14.128Z,23.70
2022-09-04T10:48:14.972Z,23.80
2022-09-04T10:51:20.941Z,23.90
2022-09-04T10:54:17.973Z,24.00
2022-09-04T10:57:08.258Z,24.10
2022-09-04T10:59:49.814Z,24.30
2022-09-04T11:02:24.853Z,24.40
2022-09-04T11:05:27.725Z,24.60
2022-09-04T11:08:22.954Z,24.80
2022-09-04T11:10:56.319Z,24.90
2022-09-04T11:13:23.607Z,25.00
2022-09-04T11:15:50.970Z,25.00
2022-09-04T11:18:24.285Z,25.10
2022-09-04T11:21:31.088Z,25.20
2022-09-04T11:24:10.376Z,25.20
2022-09-04T11:27:09.979Z,25.20
2022-09-04T11:30:12.075Z,25.40
2022-09-04T11:33:07.500Z,25.40
2022-09-04T11:36:12.891Z,25.50
2022-09-04T11:38:49.858Z,25.50
2022-09-04T11:41:44.420Z,25.60
2022-09-04T11:44:15.061Z,25.70
2022-09-04T11:47:20.980Z,25.80
2022-09-04T11:50:06.998Z,25.90
2022-09-04T11:53:12.775Z,26.00
2022-09-04T11:55:58.103Z,26.20
2022-09-04T11:59:04.022Z,26.40
2022-09-04T12:01:31.311Z,26.60
2022-09-04T12:04:23.033Z,26.70
2022-09-04T12:07:18.363Z,26.80
2022-09-04T12:10:16.643Z,26.80
2022-09-04T12:13:14.789Z,26.80
2022-09-04T12:16:17.068Z,26.80
2022-09-04T12:18:57.272Z,26.80
2022-09-04T12:21:48.814Z,26.80
2022-09-04T12:24:22.075Z,26.90
2022-09-04T12:27:04.432Z,26.90
2022-09-04T12:29:50.394Z,26.90
2022-09-04T12:32:59.076Z,27.00
2022-09-04T12:35:48.940Z,27.10
2022-09-04T12:38:28.251Z,27.10
2022-09-04T12:41:28.269Z,27.20
2022-09-04T12:44:11.674Z,27.40
2022-09-04T12:47:04.579Z,27.50
2022-09-04T12:49:48.161Z,27.60
2022-09-04T12:52:39.924Z,27.70
2022-09-04T12:55:35.927Z,27.80
2022-09-04T12:58:33.740Z,27.90
2022-09-04T13:01:13.704Z,28.00
2022-09-04T13:04:01.212Z,28.20
2022-09-04T13:06:50.392Z,28.40
2022-09-04T13:09:53.436Z,28.40
2022-09-04T13:12:48.565Z,28.60
2022-09-04T13:15:49.964Z,29.00
2022-09-04T13:18:22.506Z,29.70
2022-09-04T13:21:16.976Z,30.00
2022-09-04T13:24:12.267Z,30.30
2022-09-04T13:26:48.315Z,30.40
2022-09-04T13:29:36.104Z,30.40
2022-09-04T13:32:30.744Z,30.20
2022-09-04T13:35:25.415Z,30.10
2022-09-04T13:38:18.769Z,29.90
2022-09-04T13:40:46.001Z,29.80
2022-09-04T13:43:31.347Z,29.60
2022-09-04T13:46:04.535Z,29.50
2022-09-04T13:49:05.343Z,29.40
2022-09-04T13:52:24.301Z,29.40
2022-09-04T13:55:18.134Z,29.50
2022-09-04T13:57:59.909Z,30.10
2022-09-04T14:00:30.376Z,30.70
2022-09-04T14:03:06.931Z,31.30
2022-09-04T14:05:37.501Z,32.40
2022-09-04T14:08:12.771Z,33.30
2022-09-04T14:10:48.839Z,34.10
2022-09-04T14:13:23.293Z,35.00
2022-09-04T14:16:06.650Z,35.20
2022-09-04T14:18:52.763Z,35.10
2022-09-04T14:21:25.802Z,34.40
2022-09-04T14:24:03.306Z,33.90
2022-09-04T14:26:49.077Z,33.90
2022-09-04T14:29:54.296Z,34.50
2022-09-04T14:32:42.561Z,34.90
2022-09-04T14:35:30.971Z,34.90
2022-09-04T14:38:24.282Z,35.10
2022-09-04T14:41:16.099Z,35.70
2022-09-04T14:44:14.329Z,35.90
2022-09-04T14:47:02.863Z,36.30
2022-09-04T14:49:31.921Z,37.40
2022-09-04T14:52:14.965Z,38.50
2022-09-04T14:54:46.566Z,39.30
2022-09-04T14:57:25.062Z,40.10
2022-09-04T15:00:24.685Z,40.70
2022-09-04T15:03:35.445Z,41.20
2022-09-04T15:06:16.341Z,41.50
2022-09-04T15:08:45.322Z,41.80
2022-09-04T15:11:31.983Z,42.10
2022-09-04T15:14:28.432Z,42.10
2022-09-04T15:17:00.798Z,41.80
2022-09-04T15:19:51.982Z,41.10
2022-09-04T15:22:26.789Z,40.60
2022-09-04T15:25:00.999Z,40.10
2022-09-04T15:27:49.826Z,39.60
2022-09-04T15:30:27.889Z,38.90
2022-09-04T15:33:08.653Z,38.20
2022-09-04T15:35:37.931Z,37.70
2022-09-04T15:38:21.935Z,37.10
2022-09-04T15:41:16.679Z,36.60
2022-09-04T15:44:12.139Z,36.00
2022-09-04T15:46:47.287Z,35.40
2022-09-04T15:49:43.894Z,34.90
2022-09-04T15:52:38.602Z,34.30
2022-09-04T15:55:22.240Z,33.80
2022-09-04T15:58:11.502Z,33.40
2022-09-04T16:00:56.636Z,33.00
2022-09-04T16:03:36.554Z,32.70
2022-09-04T16:06:15.800Z,32.40
2022-09-04T16:09:07.075Z,32.10
2022-09-04T16:11:49.175Z,31.90
2022-09-04T16:14:25.684Z,31.60
2022-09-04T16:17:00.052Z,31.40
2022-09-04T16:19:34.443Z,31.20
2022-09-04T16:22:28.180Z,31.10
2022-09-04T16:25:23.475Z,30.90
2022-09-04T16:28:04.781Z,30.80
2022-09-04T16:31:07.406Z,30.70
2022-09-04T16:33:45.481Z,30.50
2022-09-04T16:36:17.401Z,30.40
2022-09-04T16:39:14.450Z,30.30
2022-09-04T16:41:58.062Z,30.20
2022-09-04T16:44:38.619Z,30.10
2022-09-04T16:47:18.413Z,30.00
2022-09-04T16:50:01.452Z,29.80
2022-09-04T16:52:32.811Z,29.70
2022-09-04T16:55:11.495Z,29.60
2022-09-04T16:57:44.503Z,29.50
2022-09-04T17:00:14.933Z,29.40
2022-09-04T17:02:56.054Z,29.30
2022-09-04T17:05:42.120Z,29.20
2022-09-04T17:08:24.075Z,29.10
2022-09-04T17:11:09.183Z,29.00
2022-09-04T17:13:46.569Z,28.90
2022-09-04T17:16:31.103Z,28.80
2022-09-04T17:18:59.526Z,28.70
2022-09-04T17:28:57.232Z,28.60
2022-09-04T17:29:08.974Z,28.30
2022-09-04T17:29:10.109Z,28.40
2022-09-04T17:32:06.984Z,28.20
2022-09-04T17:40:35.864Z,28.10
2022-09-04T17:40:50.008Z,28.00
2022-09-04T17:41:38.174Z,27.90
2022-09-04T17:44:35.108Z,27.80
2022-09-04T17:47:27.326Z,27.70
2022-09-04T17:49:56.203Z,27.60
2022-09-04T17:52:30.220Z,27.50
2022-09-04T17:55:13.111Z,27.40
2022-09-04T17:58:10.179Z,27.30
2022-09-04T18:00:49.580Z,27.20
2022-09-04T18:03:29.837Z,27.10
2022-09-04T18:06:13.805Z,27.00
2022-09-04T18:08:59.095Z,26.90
2022-09-04T18:11:36.309Z,26.80
2022-09-04T18:14:14.627Z,26.70
2022-09-04T18:17:11.259Z,26.60
2022-09-04T18:19:48.793Z,26.50
2022-09-04T18:22:26.870Z,26.50
2022-09-04T18:25:15.901Z,26.40
2022-09-04T18:28:09.626Z,26.30
2022-09-04T18:37:12.631Z,26.20
2022-09-04T18:37:24.172Z,26.10
2022-09-04T18:37:43.887Z,26.00
2022-09-04T18:43:37.351Z,26.00
2022-09-04T18:48:51.023Z,25.90
2022-09-04T18:50:32.090Z,25.70
2022-09-04T18:50:45.238Z,25.80
2022-09-04T18:52:04.674Z,25.70
2022-09-04T18:54:44.337Z,25.60
2022-09-04T18:58:16.220Z,25.60
2022-09-04T19:01:00.727Z,25.50
2022-09-04T19:03:49.248Z,25.50
2022-09-04T19:06:38.141Z,25.40
2022-09-04T19:09:16.691Z,25.40
2022-09-04T19:11:55.408Z,25.40
2022-09-04T19:14:28.896Z,25.40
2022-09-04T19:17:21.057Z,25.30
2022-09-04T19:19:49.974Z,25.20
2022-09-04T19:22:41.525Z,25.20
2022-09-04T19:25:30.621Z,25.20
2022-09-04T19:28:22.001Z,25.10
2022-09-04T19:30:54.623Z,25.10
2022-09-04T19:33:47.823Z,25.00
2022-09-04T19:36:43.820Z,25.00
2022-09-04T19:43:12.962Z,25.00
2022-09-04T19:45:57.609Z,25.00
2022-09-04T19:46:26.056Z,24.90
2022-09-04T19:52:51.378Z,24.80
2022-09-04T19:53:36.107Z,24.80
2022-09-04T19:55:46.386Z,24.80
2022-09-04T19:58:32.986Z,24.70
2022-09-04T20:01:02.650Z,24.70
2022-09-04T20:03:36.018Z,24.60
2022-09-04T20:06:36.376Z,24.60
2022-09-04T20:09:33.164Z,24.60
2022-09-04T20:12:18.157Z,24.60
2022-09-04T20:15:00.329Z,24.50
2022-09-04T20:17:53.636Z,24.50
2022-09-04T20:20:28.683Z,24.50
2022-09-04T20:22:58.696Z,24.40
2022-09-04T20:25:55.917Z,24.40
2022-09-04T20:28:52.565Z,24.40
2022-09-04T20:31:36.578Z,24.40
2022-09-04T20:34:12.842Z,24.30
2022-09-04T20:36:48.879Z,24.30
2022-09-04T20:39:27.444Z,24.30
2022-09-04T20:42:07.910Z,24.30
2022-09-04T20:44:51.140Z,24.30
2022-09-04T20:52:40.654Z,24.30
2022-09-04T20:53:05.491Z,24.20
2022-09-04T20:53:43.148Z,24.20
2022-09-04T20:57:13.655Z,24.20
2022-09-04T21:03:13.597Z,24.10
2022-09-04T21:03:23.558Z,24.10
2022-09-04T21:06:07.002Z,24.10
2022-09-04T21:08:40.735Z,24.00
2022-09-04T21:11:40.499Z,23.90
2022-09-04T21:14:28.631Z,23.90
2022-09-04T21:17:34.175Z,23.90
2022-09-04T21:20:23.644Z,23.80
2022-09-04T21:23:23.503Z,23.80
2022-09-04T21:25:58.112Z,23.70
2022-09-04T21:29:03.178Z,23.70
2022-09-04T21:32:16.170Z,23.70
2022-09-04T21:35:13.120Z,23.60
2022-09-04T21:38:02.097Z,23.60
2022-09-04T21:40:56.931Z,23.50
2022-09-04T21:43:42.492Z,23.50
2022-09-04T21:46:29.100Z,23.40
2022-09-04T21:49:26.525Z,23.40
2022-09-04T21:52:09.711Z,23.40
2022-09-04T22:01:33.248Z,23.30
2022-09-04T22:02:27.917Z,23.30
2022-09-04T22:02:45.673Z,23.30
2022-09-04T22:04:04.986Z,23.20
2022-09-04T22:06:55.711Z,23.20
2022-09-04T22:13:28.700Z,23.20
2022-09-04T22:13:33.244Z,23.10
2022-09-04T22:15:59.942Z,23.10
2022-09-04T22:18:39.757Z,23.10
2022-09-04T22:21:44.812Z,23.00
2022-09-04T22:24:45.413Z,23.00
2022-09-04T22:27:45.542Z,23.00
2022-09-04T22:30:38.865Z,22.90
2022-09-04T22:33:32.501Z,22.90
2022-09-04T22:36:21.973Z,22.90
2022-09-04T22:39:36.609Z,22.90
2022-09-04T22:42:41.737Z,22.90
2022-09-04T22:45:30.689Z,22.90
2022-09-04T22:48:20.547Z,22.80
2022-09-04T22:51:06.084Z,22.80
2022-09-04T22:53:48.611Z,22.80
2022-09-04T22:56:44.944Z,22.80
2022-09-04T22:59:30.271Z,22.80
2022-09-04T23:02:14.048Z,22.70
2022-09-04T23:04:45.535Z,22.70
2022-09-04T23:12:05.059Z,22.70
2022-09-04T23:13:46.988Z,22.70
2022-09-04T23:13:56.569Z,22.70
2022-09-04T23:16:58.307Z,22.70
2022-09-04T23:24:21.245Z,22.70
2022-09-04T23:26:33.321Z,22.60
2022-09-04T23:26:59.098Z,22.60
2022-09-04T23:30:02.265Z,22.50
2022-09-04T23:32:56.909Z,22.50
2022-09-04T23:35:38.967Z,22.50
2022-09-04T23:38:24.917Z,22.50
2022-09-04T23:40:59.177Z,22.50
2022-09-04T23:43:45.361Z,22.40
2022-09-04T23:46:35.529Z,22.40
2022-09-04T23:49:44.948Z,22.40
2022-09-04T23:52:27.347Z,22.30
2022-09-04T23:55:06.747Z,22.30
2022-09-04T23:57:52.881Z,22.30
